createdAt,value
2022-10-10T00:01:17.117Z,8.80
2022-10-10T00:03:45.253Z,7.30
2022-10-10T00:06:13.773Z,7.20
2022-10-10T00:08:41.961Z,7.00
2022-10-10T00:11:09.853Z,7.30
2022-10-10T00:13:38.238Z,5.97
2022-10-10T00:16:05.948Z,6.77
2022-10-10T00:18:34.222Z,5.90
2022-10-10T00:21:02.055Z,6.27
2022-10-10T00:23:30.351Z,5.90
2022-10-10T00:26:19.216Z,6.50
2022-10-10T00:28:48.197Z,6.63
2022-10-10T00:31:16.226Z,6.60
2022-10-10T00:33:44.184Z,5.87
2022-10-10T00:36:12.077Z,6.13
2022-10-10T00:38:39.948Z,6.57
2022-10-10T00:41:07.896Z,7.40
2022-10-10T00:43:36.068Z,7.17
2022-10-10T00:46:03.664Z,6.43
2022-10-10T00:48:34.145Z,6.67
2022-10-10T00:51:15.650Z,6.13
2022-10-10T00:53:51.688Z,6.78
2022-10-10T00:56:21.251Z,7.67
2022-10-10T00:58:51.445Z,6.23
2022-10-10T01:01:19.055Z,9.27
2022-10-10T01:03:46.959Z,8.20
2022-10-10T01:06:14.694Z,11.60
2022-10-10T01:08:42.936Z,9.97
2022-10-10T01:11:22.928Z,9.43
2022-10-10T01:13:50.971Z,9.27
2022-10-10T01:16:22.507Z,8.00
2022-10-10T01:18:55.436Z,8.05
2022-10-10T01:21:23.139Z,8.43
2022-10-10T01:24:02.405Z,9.73
2022-10-10T01:26:32.994Z,7.90
2022-10-10T01:29:00.630Z,8.60
2022-10-10T01:31:29.272Z,8.60
2022-10-10T01:34:08.063Z,8.50
2022-10-10T01:36:44.717Z,7.57
2022-10-10T01:39:19.329Z,7.43
2022-10-10T01:42:22.386Z,6.40
2022-10-10T01:44:53.855Z,7.53
2022-10-10T01:47:22.437Z,7.40
2022-10-10T01:49:51.914Z,6.30
2022-10-10T01:52:25.550Z,6.13
2022-10-10T01:55:12.503Z,6.37
2022-10-10T01:57:43.040Z,5.93
2022-10-10T02:00:12.448Z,5.80
2022-10-10T02:02:40.139Z,6.67
2022-10-10T02:05:23.757Z,6.90
2022-10-10T02:07:54.862Z,7.17
2022-10-10T02:10:24.144Z,7.20
2022-10-10T02:12:52.836Z,8.43
2022-10-10T02:15:23.150Z,6.33
2022-10-10T02:17:51.587Z,7.87
2022-10-10T02:20:20.669Z,7.07
2022-10-10T02:22:49.550Z,7.57
2022-10-10T02:25:18.162Z,7.17
2022-10-10T02:28:07.822Z,7.87
2022-10-10T02:30:37.259Z,7.57
2022-10-10T02:33:06.386Z,6.73
2022-10-10T02:35:40.107Z,7.30
2022-10-10T02:38:10.028Z,7.37
2022-10-10T02:40:38.695Z,7.23
2022-10-10T02:43:08.007Z,6.73
2022-10-10T02:45:35.968Z,7.30
2022-10-10T02:48:04.281Z,6.87
2022-10-10T02:50:32.350Z,7.27
2022-10-10T02:53:00.636Z,7.20
2022-10-10T02:55:28.501Z,8.13
2022-10-10T02:57:56.333Z,7.97
2022-10-10T03:00:23.982Z,10.17
2022-10-10T03:02:51.985Z,8.30
2022-10-10T03:05:20.079Z,9.00
2022-10-10T03:07:47.824Z,8.70
2022-10-10T03:10:15.773Z,8.60
2022-10-10T03:12:43.501Z,8.53
2022-10-10T03:15:12.032Z,8.20
2022-10-10T03:17:40.415Z,8.00
2022-10-10T03:20:08.683Z,7.43
2022-10-10T03:22:36.231Z,8.33
2022-10-10T03:25:04.497Z,8.40
2022-10-10T03:27:32.108Z,8.83
2022-10-10T03:30:00.026Z,8.73
2022-10-10T03:32:28.201Z,9.17
2022-10-10T03:34:56.079Z,9.57
2022-10-10T03:37:23.609Z,9.43
2022-10-10T03:39:51.476Z,8.60
2022-10-10T03:42:19.096Z,10.50
2022-10-10T03:44:46.896Z,18.00
2022-10-10T03:47:14.497Z,14.80
2022-10-10T03:49:42.349Z,12.67
2022-10-10T03:52:10.308Z,11.37
2022-10-10T03:54:38.163Z,8.60
2022-10-10T03:57:05.752Z,7.90
2022-10-10T03:59:33.586Z,8.50
2022-10-10T04:02:01.270Z,8.83
2022-10-10T04:04:29.236Z,8.53
2022-10-10T04:06:56.894Z,9.03
2022-10-10T04:09:24.802Z,9.27
2022-10-10T04:11:52.453Z,10.13
2022-10-10T04:14:20.270Z,10.70
2022-10-10T04:16:47.808Z,23.00
2022-10-10T04:19:15.686Z,8.20
2022-10-10T04:21:43.337Z,10.27
2022-10-10T04:24:11.392Z,9.37
2022-10-10T04:26:39.151Z,9.90
2022-10-10T04:29:06.946Z,11.13
2022-10-10T04:31:34.598Z,10.63
2022-10-10T04:34:02.380Z,11.73
2022-10-10T04:36:30.034Z,14.13
2022-10-10T04:38:59.468Z,13.63
2022-10-10T04:41:27.168Z,13.00
2022-10-10T04:43:55.045Z,11.97
2022-10-10T04:46:22.596Z,12.67
2022-10-10T04:48:50.338Z,13.00
2022-10-10T04:51:19.012Z,15.37
2022-10-10T04:54:05.550Z,14.27
2022-10-10T04:56:33.134Z,13.97
2022-10-10T04:59:00.968Z,13.13
2022-10-10T05:01:29.001Z,14.23
2022-10-10T05:03:57.058Z,14.20
2022-10-10T05:06:24.634Z,13.87
2022-10-10T05:08:52.374Z,17.90
2022-10-10T05:11:19.938Z,14.93
2022-10-10T05:14:07.453Z,14.67
2022-10-10T05:16:35.124Z,13.57
2022-10-10T05:19:02.916Z,14.07
2022-10-10T05:21:31.646Z,15.27
2022-10-10T05:23:59.484Z,18.65
2022-10-10T05:26:27.379Z,50.17
2022-10-10T05:28:55.715Z,24.08
2022-10-10T05:31:23.291Z,13.60
2022-10-10T05:33:51.130Z,9.05
2022-10-10T05:36:18.698Z,10.95
2022-10-10T05:38:46.457Z,10.20
2022-10-10T05:41:33.931Z,9.65
2022-10-10T05:44:01.728Z,8.82
2022-10-10T05:46:29.302Z,7.32
2022-10-10T05:48:57.482Z,8.38
2022-10-10T05:51:25.087Z,8.68
2022-10-10T05:53:52.839Z,7.80
2022-10-10T05:56:20.409Z,8.25
2022-10-10T05:58:49.372Z,9.18
2022-10-10T06:01:36.661Z,10.75
2022-10-10T06:04:04.891Z,11.27
2022-10-10T06:06:32.369Z,10.90
2022-10-10T06:09:00.241Z,13.20
2022-10-10T06:11:27.841Z,15.00
2022-10-10T06:13:55.717Z,11.02
2022-10-10T06:16:27.848Z,9.73
2022-10-10T06:18:59.037Z,9.02
2022-10-10T06:21:26.959Z,8.65
2022-10-10T06:23:54.875Z,7.68
2022-10-10T06:26:22.699Z,8.38
2022-10-10T06:28:53.463Z,7.70
2022-10-10T06:31:21.103Z,7.57
2022-10-10T06:33:50.009Z,7.03
2022-10-10T06:36:17.925Z,6.65
2022-10-10T06:38:47.162Z,6.38
2022-10-10T06:41:16.613Z,7.13
2022-10-10T06:43:44.382Z,6.32
2022-10-10T06:46:12.359Z,5.60
2022-10-10T06:48:40.313Z,6.00
2022-10-10T06:51:09.568Z,6.10
2022-10-10T06:53:37.381Z,5.32
2022-10-10T06:56:05.625Z,8.73
2022-10-10T06:58:33.962Z,6.47
2022-10-10T07:01:02.516Z,5.25
2022-10-10T07:03:31.390Z,4.63
2022-10-10T07:06:00.695Z,6.47
2022-10-10T07:08:29.118Z,4.90
2022-10-10T07:10:57.170Z,3.95
2022-10-10T07:13:24.976Z,4.13
2022-10-10T07:15:53.438Z,4.05
2022-10-10T07:18:21.665Z,3.40
2022-10-10T07:20:49.835Z,3.30
2022-10-10T07:23:17.759Z,3.72
2022-10-10T07:25:45.545Z,3.45
2022-10-10T07:28:13.483Z,3.95
2022-10-10T07:30:43.424Z,3.20
2022-10-10T07:33:14.787Z,3.38
2022-10-10T07:35:42.898Z,3.35
2022-10-10T07:40:51.686Z,2.95
2022-10-10T07:43:19.456Z,2.72
2022-10-10T07:45:47.141Z,3.03
2022-10-10T07:48:15.207Z,2.70
2022-10-10T07:50:43.163Z,2.67
2022-10-10T07:53:11.739Z,2.88
2022-10-10T07:55:40.349Z,2.78
2022-10-10T07:58:08.240Z,2.75
2022-10-10T08:00:36.573Z,2.15
2022-10-10T08:03:07.409Z,2.80
2022-10-10T08:05:42.750Z,2.42
2022-10-10T08:08:11.436Z,2.50
2022-10-10T08:10:39.235Z,2.63
2022-10-10T08:13:07.490Z,3.13
2022-10-10T08:15:35.137Z,3.92
2022-10-10T08:18:03.101Z,4.00
2022-10-10T08:20:30.746Z,3.80
2022-10-10T08:22:59.017Z,2.72
2022-10-10T08:25:26.707Z,2.70
2022-10-10T08:27:54.533Z,3.15
2022-10-10T08:30:22.247Z,3.00
2022-10-10T08:32:50.389Z,3.00
2022-10-10T08:35:18.150Z,2.55
2022-10-10T08:37:45.888Z,3.15
2022-10-10T08:40:20.059Z,2.95
2022-10-10T08:42:52.871Z,2.80
2022-10-10T08:45:22.386Z,3.70
2022-10-10T08:47:52.169Z,2.92
2022-10-10T08:50:22.215Z,2.87
2022-10-10T08:52:58.535Z,2.70
2022-10-10T08:55:31.054Z,2.60
2022-10-10T08:58:04.439Z,2.80
2022-10-10T09:00:35.700Z,2.63
2022-10-10T09:03:05.708Z,2.88
2022-10-10T09:05:36.692Z,3.15
2022-10-10T09:08:10.164Z,2.80
2022-10-10T09:10:55.531Z,3.13
2022-10-10T09:13:32.544Z,3.25
2022-10-10T09:16:19.680Z,3.40
2022-10-10T09:19:00.625Z,3.20
2022-10-10T09:21:30.315Z,3.00
2022-10-10T09:24:05.560Z,3.50
2022-10-10T09:26:38.864Z,3.75
2022-10-10T09:29:24.197Z,3.40
2022-10-10T09:31:58.885Z,4.30
2022-10-10T09:34:35.718Z,3.40
2022-10-10T09:37:04.468Z,3.78
2022-10-10T09:39:32.638Z,3.30
2022-10-10T09:42:01.398Z,3.47
2022-10-10T09:44:30.124Z,3.35
2022-10-10T09:46:59.505Z,3.42
2022-10-10T09:49:27.598Z,3.30
2022-10-10T09:51:55.483Z,3.22
2022-10-10T09:54:25.133Z,3.60
2022-10-10T09:56:56.952Z,3.22
2022-10-10T09:59:40.297Z,3.35
2022-10-10T10:02:28.446Z,3.65
2022-10-10T10:04:56.290Z,3.20
2022-10-10T10:07:26.795Z,3.42
2022-10-10T10:09:56.217Z,2.80
2022-10-10T10:12:32.022Z,3.97
2022-10-10T10:15:04.311Z,3.58
2022-10-10T10:17:32.378Z,3.47
2022-10-10T10:20:00.369Z,4.00
2022-10-10T10:22:40.874Z,3.05
2022-10-10T10:25:29.154Z,3.92
2022-10-10T10:28:11.671Z,3.63
2022-10-10T10:30:39.772Z,4.00
2022-10-10T10:33:13.667Z,3.67
2022-10-10T10:35:52.680Z,3.58
2022-10-10T10:38:20.458Z,3.72
2022-10-10T10:40:57.307Z,3.80
2022-10-10T10:43:30.816Z,3.47
2022-10-10T10:46:02.076Z,3.33
2022-10-10T10:48:38.610Z,3.78
2022-10-10T10:51:12.491Z,3.40
2022-10-10T10:53:40.306Z,3.63
2022-10-10T10:56:27.066Z,3.50
2022-10-10T11:02:26.118Z,3.58
2022-10-10T11:05:29.575Z,3.85
2022-10-10T11:08:23.702Z,3.97
2022-10-10T11:10:58.403Z,3.47
2022-10-10T11:13:32.570Z,3.55
2022-10-10T11:16:08.561Z,3.50
2022-10-10T11:18:52.109Z,3.75
2022-10-10T11:21:21.448Z,3.85
2022-10-10T11:23:51.811Z,3.85
2022-10-10T11:26:36.299Z,3.45
2022-10-10T11:29:25.417Z,4.63
2022-10-10T11:31:55.886Z,3.80
2022-10-10T11:34:27.256Z,3.53
2022-10-10T11:36:56.725Z,3.65
2022-10-10T11:39:31.011Z,3.13
2022-10-10T11:42:02.409Z,3.50
2022-10-10T11:44:33.005Z,3.60
2022-10-10T11:47:17.324Z,3.70
2022-10-10T11:49:49.779Z,3.40
2022-10-10T11:52:36.436Z,3.63
2022-10-10T11:55:06.965Z,3.35
2022-10-10T11:57:38.100Z,3.30
2022-10-10T12:00:08.234Z,4.80
2022-10-10T12:02:37.418Z,3.65
2022-10-10T12:05:06.210Z,3.78
2022-10-10T12:07:47.671Z,3.55
2022-10-10T12:12:45.269Z,3.70
2022-10-10T12:15:29.704Z,3.67
2022-10-10T12:17:58.011Z,3.33
2022-10-10T12:20:30.468Z,3.58
2022-10-10T12:23:16.969Z,3.15
2022-10-10T12:25:46.237Z,3.13
2022-10-10T12:28:14.146Z,3.25
2022-10-10T12:30:58.652Z,3.10
2022-10-10T12:33:27.060Z,3.67
2022-10-10T12:35:54.808Z,3.60
2022-10-10T12:38:23.908Z,3.80
2022-10-10T12:40:57.841Z,3.72
2022-10-10T12:43:36.828Z,3.45
2022-10-10T12:46:23.251Z,3.65
2022-10-10T12:49:20.495Z,3.50
2022-10-10T12:52:00.175Z,4.18
2022-10-10T12:54:30.108Z,4.07
2022-10-10T12:57:10.303Z,3.40
2022-10-10T12:59:38.791Z,3.50
2022-10-10T13:02:11.543Z,3.95
2022-10-10T13:04:42.214Z,4.10
2022-10-10T13:07:13.906Z,3.70
2022-10-10T13:09:44.316Z,4.00
2022-10-10T13:12:32.627Z,3.90
2022-10-10T13:15:00.879Z,3.92
2022-10-10T13:17:33.496Z,3.70
2022-10-10T13:20:01.758Z,3.70
2022-10-10T13:22:30.708Z,4.40
2022-10-10T13:24:59.035Z,3.95
2022-10-10T13:27:28.335Z,3.88
2022-10-10T13:29:56.251Z,4.30
2022-10-10T13:32:26.007Z,4.22
2022-10-10T13:35:01.349Z,4.18
2022-10-10T13:37:30.128Z,4.20
2022-10-10T13:39:58.243Z,4.53
2022-10-10T13:42:31.847Z,4.50
2022-10-10T13:45:00.512Z,4.72
2022-10-10T13:47:46.933Z,4.55
2022-10-10T13:50:20.688Z,3.85
2022-10-10T13:52:48.734Z,4.70
2022-10-10T13:55:26.439Z,4.35
2022-10-10T13:57:59.501Z,4.28
2022-10-10T14:00:32.765Z,4.50
2022-10-10T14:05:29.999Z,4.70
2022-10-10T14:07:58.366Z,4.30
2022-10-10T14:10:28.151Z,4.13
2022-10-10T14:12:58.129Z,4.60
2022-10-10T14:15:45.412Z,4.50
2022-10-10T14:18:17.813Z,4.80
2022-10-10T14:20:45.870Z,5.32
2022-10-10T14:23:14.112Z,4.70
2022-10-10T14:25:42.847Z,4.95
2022-10-10T14:28:16.926Z,4.50
2022-10-10T14:30:44.903Z,4.72
2022-10-10T14:33:13.645Z,4.63
2022-10-10T14:35:42.175Z,5.10
2022-10-10T14:38:14.062Z,5.20
2022-10-10T14:40:42.661Z,5.18
2022-10-10T14:43:10.445Z,5.03
2022-10-10T14:45:38.429Z,4.82
2022-10-10T14:48:06.218Z,4.35
2022-10-10T14:50:36.310Z,4.88
2022-10-10T14:53:04.610Z,5.65
2022-10-10T14:55:32.878Z,4.93
2022-10-10T14:58:00.481Z,6.57
2022-10-10T15:00:28.949Z,9.10
2022-10-10T15:02:56.886Z,8.68
2022-10-10T15:05:24.688Z,5.80
2022-10-10T15:07:53.862Z,7.72
2022-10-10T15:10:37.111Z,6.50
2022-10-10T15:13:04.915Z,9.23
2022-10-10T15:15:32.564Z,8.20
2022-10-10T15:18:00.215Z,9.05
2022-10-10T15:20:31.734Z,7.53
2022-10-10T15:23:00.257Z,5.90
2022-10-10T15:25:33.088Z,6.65
2022-10-10T15:28:02.871Z,6.07
2022-10-10T15:30:30.938Z,6.22
2022-10-10T15:32:58.785Z,6.05
2022-10-10T15:35:32.733Z,5.70
2022-10-10T15:38:07.703Z,5.75
2022-10-10T15:40:35.600Z,5.80
2022-10-10T15:43:04.019Z,6.13
2022-10-10T15:45:51.432Z,7.32
2022-10-10T15:48:19.944Z,6.90
2022-10-10T15:50:47.771Z,6.30
2022-10-10T15:53:16.048Z,8.00
2022-10-10T15:55:44.551Z,7.15
2022-10-10T15:58:12.388Z,6.50
2022-10-10T16:00:41.269Z,7.32
2022-10-10T16:03:09.501Z,8.23
2022-10-10T16:05:37.704Z,19.77
2022-10-10T16:08:05.657Z,20.98
2022-10-10T16:10:44.314Z,17.38
2022-10-10T16:13:12.181Z,14.60
2022-10-10T16:15:40.037Z,13.00
2022-10-10T16:18:07.701Z,16.95
2022-10-10T16:20:35.850Z,15.80
2022-10-10T16:23:03.447Z,21.30
2022-10-10T16:25:31.143Z,32.08
2022-10-10T16:27:59.175Z,19.27
2022-10-10T16:30:26.835Z,18.27
2022-10-10T16:32:55.169Z,19.60
2022-10-10T16:35:22.958Z,20.38
2022-10-10T16:37:51.085Z,26.13
2022-10-10T16:40:18.913Z,28.45
2022-10-10T16:42:46.519Z,29.40
2022-10-10T16:45:14.332Z,30.25
2022-10-10T16:47:42.041Z,41.72
2022-10-10T16:50:10.147Z,43.17
2022-10-10T16:52:38.393Z,39.75
2022-10-10T16:55:07.162Z,44.10
2022-10-10T16:57:35.809Z,22.48
2022-10-10T17:00:03.745Z,17.83
2022-10-10T17:02:31.404Z,12.75
2022-10-10T17:05:00.594Z,16.25
2022-10-10T17:07:28.304Z,16.60
2022-10-10T17:09:56.297Z,14.63
2022-10-10T17:12:24.001Z,16.02
2022-10-10T17:14:51.935Z,30.70
2022-10-10T17:17:20.396Z,18.38
2022-10-10T17:19:49.356Z,17.25
2022-10-10T17:22:17.319Z,18.05
2022-10-10T17:24:44.947Z,18.77
2022-10-10T17:27:13.184Z,28.50
2022-10-10T17:29:40.805Z,36.80
2022-10-10T17:32:08.380Z,41.60
2022-10-10T17:34:36.616Z,66.13
2022-10-10T17:37:04.730Z,38.53
2022-10-10T17:39:32.555Z,18.10
2022-10-10T17:42:00.554Z,16.42
2022-10-10T17:44:30.634Z,22.33
2022-10-10T17:46:58.306Z,15.95
2022-10-10T17:49:27.687Z,15.00
2022-10-10T17:51:56.121Z,15.52
2022-10-10T17:54:23.894Z,13.73
2022-10-10T17:56:51.895Z,11.43
2022-10-10T17:59:19.425Z,10.00
2022-10-10T18:01:47.235Z,8.80
2022-10-10T18:04:16.624Z,8.45
2022-10-10T18:06:44.307Z,8.40
2022-10-10T18:09:12.028Z,8.27
2022-10-10T18:11:39.904Z,7.40
2022-10-10T18:14:07.487Z,21.10
2022-10-10T18:16:35.619Z,15.35
2022-10-10T18:19:04.761Z,16.90
2022-10-10T18:21:32.553Z,9.30
2022-10-10T18:24:01.032Z,27.60
2022-10-10T18:26:29.619Z,15.50
2022-10-10T18:28:57.790Z,51.30
2022-10-10T18:31:27.152Z,18.98
2022-10-10T18:33:55.191Z,18.10
2022-10-10T18:36:27.860Z,12.18
2022-10-10T18:38:58.565Z,10.18
2022-10-10T18:41:30.562Z,10.20
2022-10-10T18:43:58.479Z,7.22
2022-10-10T18:46:26.324Z,7.28
2022-10-10T18:48:54.435Z,6.55
2022-10-10T18:51:24.629Z,6.35
2022-10-10T18:53:53.841Z,6.70
2022-10-10T18:56:24.592Z,6.10
2022-10-10T18:58:55.587Z,6.72
2022-10-10T19:01:25.176Z,6.72
2022-10-10T19:03:53.966Z,6.10
2022-10-10T19:06:23.103Z,6.63
2022-10-10T19:08:57.379Z,6.50
2022-10-10T19:11:27.186Z,6.75
2022-10-10T19:13:55.364Z,7.28
2022-10-10T19:16:23.638Z,6.90
2022-10-10T19:18:55.199Z,7.20
2022-10-10T19:21:25.361Z,7.90
2022-10-10T19:23:53.215Z,8.77
2022-10-10T19:26:21.434Z,6.65
2022-10-10T19:28:49.327Z,12.02
2022-10-10T19:31:18.036Z,6.65
2022-10-10T19:33:46.190Z,7.00
2022-10-10T19:36:14.955Z,13.90
2022-10-10T19:38:42.996Z,6.78
2022-10-10T19:41:15.225Z,6.00
2022-10-10T19:43:43.655Z,6.18
2022-10-10T19:46:15.433Z,6.60
2022-10-10T19:48:43.582Z,6.30
2022-10-10T19:51:12.508Z,6.45
2022-10-10T19:53:40.490Z,6.13
2022-10-10T19:56:11.224Z,6.10
2022-10-10T19:58:38.888Z,6.28
2022-10-10T20:01:07.767Z,6.07
2022-10-10T20:03:35.848Z,6.47
2022-10-10T20:06:04.390Z,6.20
2022-10-10T20:08:32.482Z,6.97
2022-10-10T20:11:00.551Z,6.60
2022-10-10T20:13:28.132Z,6.30
2022-10-10T20:15:59.014Z,6.30
2022-10-10T20:18:26.877Z,6.20
2022-10-10T20:20:54.607Z,6.07
2022-10-10T20:23:24.061Z,6.53
2022-10-10T20:25:52.537Z,5.60
2022-10-10T20:28:21.055Z,6.00
2022-10-10T20:30:49.749Z,5.47
2022-10-10T20:33:18.879Z,6.05
2022-10-10T20:35:46.902Z,5.47
2022-10-10T20:38:15.114Z,5.70
2022-10-10T20:40:44.044Z,6.18
2022-10-10T20:43:12.276Z,4.28
2022-10-10T20:45:41.442Z,5.13
2022-10-10T20:48:09.923Z,5.65
2022-10-10T20:50:38.366Z,5.93
2022-10-10T20:53:06.709Z,5.07
2022-10-10T20:55:34.587Z,5.30
2022-10-10T20:58:02.247Z,5.63
2022-10-10T21:00:29.868Z,5.80
2022-10-10T21:02:57.609Z,5.82
2022-10-10T21:05:25.198Z,5.78
2022-10-10T21:07:52.755Z,5.28
2022-10-10T21:10:20.508Z,6.05
2022-10-10T21:12:48.169Z,4.72
2022-10-10T21:15:15.737Z,5.43
2022-10-10T21:17:43.723Z,6.18
2022-10-10T21:20:11.504Z,5.05
2022-10-10T21:22:39.252Z,5.65
2022-10-10T21:25:07.277Z,5.38
2022-10-10T21:27:35.001Z,5.70
2022-10-10T21:30:02.778Z,5.72
2022-10-10T21:32:30.512Z,5.03
2022-10-10T21:34:58.491Z,5.03
2022-10-10T21:37:27.242Z,5.18
2022-10-10T21:39:54.897Z,4.95
2022-10-10T21:42:22.687Z,5.10
2022-10-10T21:44:50.276Z,5.25
2022-10-10T21:47:17.844Z,4.72
2022-10-10T21:49:45.631Z,4.90
2022-10-10T21:52:13.198Z,4.70
2022-10-10T21:54:41.466Z,5.03
2022-10-10T21:57:09.865Z,5.15
2022-10-10T21:59:37.381Z,5.05
2022-10-10T22:02:05.030Z,5.20
2022-10-10T22:04:32.835Z,5.15
2022-10-10T22:07:00.520Z,4.88
2022-10-10T22:09:28.109Z,5.13
2022-10-10T22:11:56.066Z,4.72
2022-10-10T22:14:23.589Z,4.80
2022-10-10T22:16:51.200Z,4.38
2022-10-10T22:19:19.146Z,4.43
2022-10-10T22:21:46.872Z,4.93
2022-10-10T22:24:14.445Z,5.50
2022-10-10T22:26:42.358Z,5.18
2022-10-10T22:29:09.958Z,5.20
2022-10-10T22:31:37.908Z,4.90
2022-10-10T22:34:06.608Z,4.50
2022-10-10T22:36:34.240Z,5.05
2022-10-10T22:39:02.135Z,4.72
2022-10-10T22:41:29.921Z,4.53
2022-10-10T22:43:57.626Z,4.82
2022-10-10T22:46:25.566Z,4.60
2022-10-10T22:48:53.141Z,4.95
2022-10-10T22:51:20.706Z,5.57
2022-10-10T22:53:48.740Z,4.70
2022-10-10T22:56:19.192Z,5.32
2022-10-10T22:58:47.393Z,4.70
2022-10-10T23:01:16.492Z,5.10
2022-10-10T23:03:44.374Z,5.38
2022-10-10T23:06:12.342Z,4.50
2022-10-10T23:08:40.003Z,4.68
2022-10-10T23:11:07.695Z,4.68
2022-10-10T23:13:35.541Z,4.68
2022-10-10T23:16:03.583Z,5.20
2022-10-10T23:18:32.214Z,5.15
2022-10-10T23:21:00.494Z,4.63
2022-10-10T23:23:28.179Z,4.07
2022-10-10T23:25:56.122Z,4.72
2022-10-10T23:28:23.907Z,4.80
2022-10-10T23:30:51.566Z,4.40
2022-10-10T23:33:33.278Z,4.30
2022-10-10T23:36:15.505Z,4.65
2022-10-10T23:38:53.822Z,5.13
2022-10-10T23:41:32.090Z,4.70
2022-10-10T23:44:10.319Z,5.00
2022-10-10T23:46:48.630Z,4.45
2022-10-10T23:49:26.701Z,4.80
2022-10-10T23:52:05.114Z,4.60
2022-10-10T23:54:43.350Z,4.43
2022-10-10T23:57:21.418Z,4.70
2022-10-10T23:59:59.850Z,4.38
